sensor_id;sensor_type;location;lat;lon;timestamp;P1;durP1;ratioP1;P2;durP2;ratioP2
37237;SDS011;23129;49.662;8.448;2022-12-18T00:00:05;24.30;;;8.95;;
37237;SDS011;23129;49.662;8.448;2022-12-18T00:02:44;17.85;;;8.77;;
37237;SDS011;23129;49.662;8.448;2022-12-18T00:05:12;12.25;;;8.35;;
37237;SDS011;23129;49.662;8.448;2022-12-18T00:07:41;18.00;;;7.30;;
37237;SDS011;23129;49.662;8.448;2022-12-18T00:10:09;14.80;;;9.43;;
37237;SDS011;23129;49.662;8.448;2022-12-18T00:12:40;11.75;;;7.38;;
37237;SDS011;23129;49.662;8.448;2022-12-18T00:15:09;13.80;;;8.50;;
37237;SDS011;23129;49.662;8.448;2022-12-18T00:17:37;22.40;;;10.63;;
37237;SDS011;23129;49.662;8.448;2022-12-18T00:20:08;16.67;;;8.10;;
37237;SDS011;23129;49.662;8.448;2022-12-18T00:22:37;16.27;;;7.70;;
37237;SDS011;23129;49.662;8.448;2022-12-18T00:25:07;17.25;;;9.20;;
37237;SDS011;23129;49.662;8.448;2022-12-18T00:27:35;14.05;;;8.02;;
37237;SDS011;23129;49.662;8.448;2022-12-18T00:30:04;13.23;;;9.50;;
37237;SDS011;23129;49.662;8.448;2022-12-18T00:32:34;12.63;;;6.85;;
37237;SDS011;23129;49.662;8.448;2022-12-18T00:35:03;9.40;;;7.05;;
37237;SDS011;23129;49.662;8.448;2022-12-18T00:37:34;21.02;;;9.15;;
37237;SDS011;23129;49.662;8.448;2022-12-18T00:40:03;16.70;;;7.82;;
37237;SDS011;23129;49.662;8.448;2022-12-18T00:42:33;13.18;;;6.22;;
37237;SDS011;23129;49.662;8.448;2022-12-18T00:45:19;20.42;;;8.75;;
37237;SDS011;23129;49.662;8.448;2022-12-18T00:47:51;13.70;;;7.53;;
37237;SDS011;23129;49.662;8.448;2022-12-18T00:50:21;15.32;;;7.70;;
37237;SDS011;23129;49.662;8.448;2022-12-18T00:52:51;9.77;;;6.68;;
37237;SDS011;23129;49.662;8.448;2022-12-18T00:55:19;13.45;;;7.85;;
37237;SDS011;23129;49.662;8.448;2022-12-18T00:57:48;10.32;;;6.78;;
37237;SDS011;23129;49.662;8.448;2022-12-18T01:00:18;20.55;;;10.07;;
37237;SDS011;23129;49.662;8.448;2022-12-18T01:02:46;13.63;;;8.30;;
37237;SDS011;23129;49.662;8.448;2022-12-18T01:05:15;15.00;;;7.55;;
37237;SDS011;23129;49.662;8.448;2022-12-18T01:07:44;22.00;;;10.68;;
37237;SDS011;23129;49.662;8.448;2022-12-18T01:10:14;18.40;;;7.22;;
37237;SDS011;23129;49.662;8.448;2022-12-18T01:12:42;14.45;;;8.23;;
37237;SDS011;23129;49.662;8.448;2022-12-18T01:15:12;19.13;;;9.07;;
37237;SDS011;23129;49.662;8.448;2022-12-18T01:17:42;18.67;;;8.85;;
37237;SDS011;23129;49.662;8.448;2022-12-18T01:20:11;14.40;;;9.43;;
37237;SDS011;23129;49.662;8.448;2022-12-18T01:22:40;17.50;;;10.70;;
37237;SDS011;23129;49.662;8.448;2022-12-18T01:25:08;12.70;;;8.98;;
37237;SDS011;23129;49.662;8.448;2022-12-18T01:27:39;14.80;;;8.73;;
37237;SDS011;23129;49.662;8.448;2022-12-18T01:30:07;13.40;;;6.43;;
37237;SDS011;23129;49.662;8.448;2022-12-18T01:32:37;18.33;;;7.47;;
37237;SDS011;23129;49.662;8.448;2022-12-18T01:35:06;13.88;;;8.82;;
37237;SDS011;23129;49.662;8.448;2022-12-18T01:37:35;13.43;;;8.25;;
37237;SDS011;23129;49.662;8.448;2022-12-18T01:40:04;19.10;;;9.85;;
37237;SDS011;23129;49.662;8.448;2022-12-18T01:42:34;16.92;;;8.25;;
37237;SDS011;23129;49.662;8.448;2022-12-18T01:45:06;16.92;;;9.25;;
37237;SDS011;23129;49.662;8.448;2022-12-18T01:47:51;16.83;;;7.72;;
37237;SDS011;23129;49.662;8.448;2022-12-18T01:50:23;30.75;;;12.82;;
37237;SDS011;23129;49.662;8.448;2022-12-18T01:52:56;12.85;;;6.30;;
37237;SDS011;23129;49.662;8.448;2022-12-18T01:55:32;16.63;;;8.43;;
37237;SDS011;23129;49.662;8.448;2022-12-18T01:58:07;12.40;;;6.25;;
37237;SDS011;23129;49.662;8.448;2022-12-18T02:00:38;13.45;;;6.20;;
37237;SDS011;23129;49.662;8.448;2022-12-18T02:03:07;12.98;;;6.35;;
37237;SDS011;23129;49.662;8.448;2022-12-18T02:05:38;18.38;;;6.13;;
37237;SDS011;23129;49.662;8.448;2022-12-18T02:08:16;14.80;;;7.65;;
37237;SDS011;23129;49.662;8.448;2022-12-18T02:10:51;9.52;;;7.38;;
37237;SDS011;23129;49.662;8.448;2022-12-18T02:13:32;17.83;;;9.32;;
37237;SDS011;23129;49.662;8.448;2022-12-18T02:16:15;21.85;;;9.60;;
37237;SDS011;23129;49.662;8.448;2022-12-18T02:18:50;6.45;;;4.22;;
37237;SDS011;23129;49.662;8.448;2022-12-18T02:21:27;20.52;;;8.00;;
37237;SDS011;23129;49.662;8.448;2022-12-18T02:24:17;7.85;;;4.95;;
37237;SDS011;23129;49.662;8.448;2022-12-18T02:26:59;13.18;;;5.55;;
37237;SDS011;23129;49.662;8.448;2022-12-18T02:29:31;11.75;;;5.00;;
37237;SDS011;23129;49.662;8.448;2022-12-18T02:32:05;17.92;;;7.07;;
37237;SDS011;23129;49.662;8.448;2022-12-18T02:34:39;6.47;;;5.35;;
37237;SDS011;23129;49.662;8.448;2022-12-18T02:37:13;8.07;;;6.25;;
37237;SDS011;23129;49.662;8.448;2022-12-18T02:42:18;5.05;;;3.53;;
37237;SDS011;23129;49.662;8.448;2022-12-18T02:44:47;19.25;;;8.73;;
37237;SDS011;23129;49.662;8.448;2022-12-18T02:47:23;17.35;;;9.70;;
37237;SDS011;23129;49.662;8.448;2022-12-18T02:49:57;13.95;;;7.18;;
37237;SDS011;23129;49.662;8.448;2022-12-18T02:52:36;11.75;;;5.45;;
37237;SDS011;23129;49.662;8.448;2022-12-18T02:55:20;13.57;;;6.05;;
37237;SDS011;23129;49.662;8.448;2022-12-18T02:58:05;15.40;;;6.75;;
37237;SDS011;23129;49.662;8.448;2022-12-18T03:00:43;15.10;;;6.88;;
37237;SDS011;23129;49.662;8.448;2022-12-18T03:03:19;12.75;;;6.13;;
37237;SDS011;23129;49.662;8.448;2022-12-18T03:05:58;9.80;;;5.80;;
37237;SDS011;23129;49.662;8.448;2022-12-18T03:08:31;15.52;;;9.68;;
37237;SDS011;23129;49.662;8.448;2022-12-18T03:11:07;14.95;;;9.43;;
37237;SDS011;23129;49.662;8.448;2022-12-18T03:13:40;19.67;;;6.10;;
37237;SDS011;23129;49.662;8.448;2022-12-18T03:16:15;21.13;;;7.90;;
37237;SDS011;23129;49.662;8.448;2022-12-18T03:21:20;12.77;;;5.97;;
37237;SDS011;23129;49.662;8.448;2022-12-18T03:23:53;15.48;;;7.25;;
37237;SDS011;23129;49.662;8.448;2022-12-18T03:26:25;15.18;;;8.10;;
37237;SDS011;23129;49.662;8.448;2022-12-18T03:29:02;14.93;;;6.72;;
37237;SDS011;23129;49.662;8.448;2022-12-18T03:31:34;10.98;;;5.18;;
37237;SDS011;23129;49.662;8.448;2022-12-18T03:34:08;8.60;;;5.60;;
37237;SDS011;23129;49.662;8.448;2022-12-18T03:36:45;11.15;;;6.57;;
37237;SDS011;23129;49.662;8.448;2022-12-18T03:39:13;14.80;;;7.57;;
37237;SDS011;23129;49.662;8.448;2022-12-18T03:41:51;22.58;;;10.68;;
37237;SDS011;23129;49.662;8.448;2022-12-18T03:44:38;12.30;;;5.03;;
37237;SDS011;23129;49.662;8.448;2022-12-18T03:47:13;24.52;;;9.93;;
37237;SDS011;23129;49.662;8.448;2022-12-18T03:49:47;12.75;;;7.03;;
37237;SDS011;23129;49.662;8.448;2022-12-18T03:52:26;20.38;;;7.70;;
37237;SDS011;23129;49.662;8.448;2022-12-18T03:54:57;13.93;;;8.38;;
37237;SDS011;23129;49.662;8.448;2022-12-18T03:57:28;29.58;;;10.77;;
37237;SDS011;23129;49.662;8.448;2022-12-18T04:02:40;8.50;;;5.30;;
37237;SDS011;23129;49.662;8.448;2022-12-18T04:05:21;14.30;;;7.07;;
37237;SDS011;23129;49.662;8.448;2022-12-18T04:07:53;13.75;;;6.80;;
37237;SDS011;23129;49.662;8.448;2022-12-18T04:10:24;17.02;;;7.55;;
37237;SDS011;23129;49.662;8.448;2022-12-18T04:12:55;9.48;;;5.57;;
37237;SDS011;23129;49.662;8.448;2022-12-18T04:15:27;13.18;;;6.05;;
37237;SDS011;23129;49.662;8.448;2022-12-18T04:17:57;19.42;;;6.65;;
37237;SDS011;23129;49.662;8.448;2022-12-18T04:20:34;12.20;;;7.63;;
37237;SDS011;23129;49.662;8.448;2022-12-18T04:23:03;27.95;;;10.15;;
37237;SDS011;23129;49.662;8.448;2022-12-18T04:25:31;12.98;;;6.90;;
37237;SDS011;23129;49.662;8.448;2022-12-18T04:28:06;13.32;;;5.95;;
37237;SDS011;23129;49.662;8.448;2022-12-18T04:30:38;16.20;;;6.20;;
37237;SDS011;23129;49.662;8.448;2022-12-18T04:33:08;12.70;;;6.10;;
37237;SDS011;23129;49.662;8.448;2022-12-18T04:35:38;8.38;;;4.05;;
37237;SDS011;23129;49.662;8.448;2022-12-18T04:38:07;11.25;;;4.50;;
37237;SDS011;23129;49.662;8.448;2022-12-18T04:40:37;13.40;;;6.60;;
37237;SDS011;23129;49.662;8.448;2022-12-18T04:43:14;22.30;;;6.90;;
37237;SDS011;23129;49.662;8.448;2022-12-18T04:45:44;12.70;;;5.00;;
37237;SDS011;23129;49.662;8.448;2022-12-18T04:48:12;9.10;;;5.38;;
37237;SDS011;23129;49.662;8.448;2022-12-18T04:50:41;11.07;;;6.43;;
37237;SDS011;23129;49.662;8.448;2022-12-18T04:53:09;13.68;;;6.15;;
37237;SDS011;23129;49.662;8.448;2022-12-18T04:55:38;12.60;;;7.55;;
37237;SDS011;23129;49.662;8.448;2022-12-18T04:58:06;7.72;;;6.00;;
37237;SDS011;23129;49.662;8.448;2022-12-18T05:00:35;8.77;;;4.63;;
37237;SDS011;23129;49.662;8.448;2022-12-18T05:03:05;11.63;;;6.85;;
37237;SDS011;23129;49.662;8.448;2022-12-18T05:05:34;17.85;;;7.15;;
37237;SDS011;23129;49.662;8.448;2022-12-18T05:08:03;26.58;;;9.70;;
37237;SDS011;23129;49.662;8.448;2022-12-18T05:10:32;15.02;;;5.47;;
37237;SDS011;23129;49.662;8.448;2022-12-18T05:13:03;12.25;;;7.32;;
37237;SDS011;23129;49.662;8.448;2022-12-18T05:15:32;25.27;;;8.55;;
37237;SDS011;23129;49.662;8.448;2022-12-18T05:18:01;12.55;;;6.93;;
37237;SDS011;23129;49.662;8.448;2022-12-18T05:20:32;7.93;;;5.00;;
37237;SDS011;23129;49.662;8.448;2022-12-18T05:23:00;16.00;;;5.65;;
37237;SDS011;23129;49.662;8.448;2022-12-18T05:25:29;11.85;;;5.80;;
37237;SDS011;23129;49.662;8.448;2022-12-18T05:27:57;11.68;;;3.90;;
37237;SDS011;23129;49.662;8.448;2022-12-18T05:30:26;8.77;;;4.85;;
37237;SDS011;23129;49.662;8.448;2022-12-18T05:32:54;9.88;;;4.75;;
37237;SDS011;23129;49.662;8.448;2022-12-18T05:35:23;6.85;;;4.60;;
37237;SDS011;23129;49.662;8.448;2022-12-18T05:37:53;4.43;;;3.45;;
37237;SDS011;23129;49.662;8.448;2022-12-18T05:40:21;10.10;;;4.88;;
37237;SDS011;23129;49.662;8.448;2022-12-18T05:42:49;7.95;;;4.18;;
37237;SDS011;23129;49.662;8.448;2022-12-18T05:45:18;15.10;;;6.45;;
37237;SDS011;23129;49.662;8.448;2022-12-18T05:47:47;5.57;;;4.28;;
37237;SDS011;23129;49.662;8.448;2022-12-18T05:50:15;5.32;;;3.72;;
37237;SDS011;23129;49.662;8.448;2022-12-18T05:52:44;3.53;;;3.22;;
37237;SDS011;23129;49.662;8.448;2022-12-18T05:55:17;8.48;;;3.58;;
37237;SDS011;23129;49.662;8.448;2022-12-18T05:57:47;9.43;;;5.95;;
37237;SDS011;23129;49.662;8.448;2022-12-18T06:00:16;9.48;;;5.28;;
37237;SDS011;23129;49.662;8.448;2022-12-18T06:02:46;13.52;;;5.15;;
37237;SDS011;23129;49.662;8.448;2022-12-18T06:05:14;5.32;;;3.58;;
37237;SDS011;23129;49.662;8.448;2022-12-18T06:07:43;9.07;;;4.15;;
37237;SDS011;23129;49.662;8.448;2022-12-18T06:10:12;14.07;;;5.45;;
37237;SDS011;23129;49.662;8.448;2022-12-18T06:12:42;8.88;;;5.22;;
37237;SDS011;23129;49.662;8.448;2022-12-18T06:15:11;6.93;;;4.18;;
37237;SDS011;23129;49.662;8.448;2022-12-18T06:17:40;15.13;;;3.80;;
37237;SDS011;23129;49.662;8.448;2022-12-18T06:20:09;12.45;;;6.93;;
37237;SDS011;23129;49.662;8.448;2022-12-18T06:22:38;13.90;;;4.38;;
37237;SDS011;23129;49.662;8.448;2022-12-18T06:25:07;12.38;;;4.65;;
37237;SDS011;23129;49.662;8.448;2022-12-18T06:27:36;15.50;;;4.20;;
37237;SDS011;23129;49.662;8.448;2022-12-18T06:30:06;6.43;;;4.63;;
37237;SDS011;23129;49.662;8.448;2022-12-18T06:32:36;10.40;;;3.70;;
37237;SDS011;23129;49.662;8.448;2022-12-18T06:35:05;7.20;;;3.28;;
37237;SDS011;23129;49.662;8.448;2022-12-18T06:37:34;8.80;;;3.63;;
37237;SDS011;23129;49.662;8.448;2022-12-18T06:40:03;6.15;;;4.53;;
37237;SDS011;23129;49.662;8.448;2022-12-18T06:42:32;7.15;;;3.33;;
37237;SDS011;23129;49.662;8.448;2022-12-18T06:45:02;9.60;;;3.70;;
37237;SDS011;23129;49.662;8.448;2022-12-18T06:47:32;10.85;;;5.93;;
37237;SDS011;23129;49.662;8.448;2022-12-18T06:50:02;4.25;;;3.78;;
37237;SDS011;23129;49.662;8.448;2022-12-18T06:55:00;5.55;;;3.45;;
37237;SDS011;23129;49.662;8.448;2022-12-18T06:57:30;7.13;;;4.38;;
37237;SDS011;23129;49.662;8.448;2022-12-18T06:59:58;6.85;;;3.75;;
37237;SDS011;23129;49.662;8.448;2022-12-18T07:02:27;14.38;;;4.78;;
37237;SDS011;23129;49.662;8.448;2022-12-18T07:05:00;6.82;;;4.13;;
37237;SDS011;23129;49.662;8.448;2022-12-18T07:07:35;11.77;;;5.25;;
37237;SDS011;23129;49.662;8.448;2022-12-18T07:10:05;5.80;;;3.97;;
37237;SDS011;23129;49.662;8.448;2022-12-18T07:12:33;10.45;;;3.70;;
37237;SDS011;23129;49.662;8.448;2022-12-18T07:15:02;9.00;;;3.80;;
37237;SDS011;23129;49.662;8.448;2022-12-18T07:17:32;4.20;;;3.80;;
37237;SDS011;23129;49.662;8.448;2022-12-18T07:20:01;6.03;;;3.03;;
37237;SDS011;23129;49.662;8.448;2022-12-18T07:22:31;2.58;;;1.55;;
37237;SDS011;23129;49.662;8.448;2022-12-18T07:24:59;5.15;;;4.07;;
37237;SDS011;23129;49.662;8.448;2022-12-18T07:27:28;5.20;;;2.70;;
37237;SDS011;23129;49.662;8.448;2022-12-18T07:29:57;4.05;;;2.10;;
37237;SDS011;23129;49.662;8.448;2022-12-18T07:32:25;7.40;;;2.45;;
37237;SDS011;23129;49.662;8.448;2022-12-18T07:34:54;5.70;;;1.75;;
37237;SDS011;23129;49.662;8.448;2022-12-18T07:37:24;10.25;;;4.25;;
37237;SDS011;23129;49.662;8.448;2022-12-18T07:39:53;11.60;;;3.92;;
37237;SDS011;23129;49.662;8.448;2022-12-18T07:42:21;5.32;;;3.15;;
37237;SDS011;23129;49.662;8.448;2022-12-18T07:44:59;13.35;;;7.45;;
37237;SDS011;23129;49.662;8.448;2022-12-18T07:47:28;3.92;;;2.72;;
37237;SDS011;23129;49.662;8.448;2022-12-18T07:49:59;6.78;;;4.13;;
37237;SDS011;23129;49.662;8.448;2022-12-18T07:52:29;2.80;;;2.58;;
37237;SDS011;23129;49.662;8.448;2022-12-18T07:54:58;9.57;;;5.07;;
37237;SDS011;23129;49.662;8.448;2022-12-18T07:57:26;2.55;;;2.38;;
37237;SDS011;23129;49.662;8.448;2022-12-18T08:00:15;8.05;;;4.40;;
37237;SDS011;23129;49.662;8.448;2022-12-18T08:02:44;13.27;;;4.53;;
37237;SDS011;23129;49.662;8.448;2022-12-18T08:05:14;6.35;;;3.88;;
37237;SDS011;23129;49.662;8.448;2022-12-18T08:07:46;14.07;;;6.03;;
37237;SDS011;23129;49.662;8.448;2022-12-18T08:10:14;8.20;;;5.80;;
37237;SDS011;23129;49.662;8.448;2022-12-18T08:12:43;4.20;;;3.88;;
37237;SDS011;23129;49.662;8.448;2022-12-18T08:15:12;5.45;;;3.63;;
37237;SDS011;23129;49.662;8.448;2022-12-18T08:17:40;5.88;;;3.90;;
37237;SDS011;23129;49.662;8.448;2022-12-18T08:20:09;7.45;;;4.60;;
37237;SDS011;23129;49.662;8.448;2022-12-18T08:22:40;6.47;;;2.80;;
37237;SDS011;23129;49.662;8.448;2022-12-18T08:25:10;7.13;;;3.58;;
37237;SDS011;23129;49.662;8.448;2022-12-18T08:27:38;16.65;;;7.28;;
37237;SDS011;23129;49.662;8.448;2022-12-18T08:30:10;9.95;;;5.78;;
37237;SDS011;23129;49.662;8.448;2022-12-18T08:32:39;9.50;;;4.93;;
37237;SDS011;23129;49.662;8.448;2022-12-18T08:35:08;11.77;;;7.05;;
37237;SDS011;23129;49.662;8.448;2022-12-18T08:37:37;11.88;;;7.60;;
37237;SDS011;23129;49.662;8.448;2022-12-18T08:40:10;9.48;;;5.97;;
37237;SDS011;23129;49.662;8.448;2022-12-18T08:42:39;12.50;;;7.45;;
37237;SDS011;23129;49.662;8.448;2022-12-18T08:45:25;10.00;;;6.45;;
37237;SDS011;23129;49.662;8.448;2022-12-18T08:47:54;9.43;;;6.43;;
37237;SDS011;23129;49.662;8.448;2022-12-18T08:50:22;12.27;;;7.38;;
37237;SDS011;23129;49.662;8.448;2022-12-18T08:52:50;10.68;;;7.97;;
37237;SDS011;23129;49.662;8.448;2022-12-18T08:55:20;11.63;;;7.78;;
37237;SDS011;23129;49.662;8.448;2022-12-18T08:57:49;20.08;;;8.65;;
37237;SDS011;23129;49.662;8.448;2022-12-18T09:00:17;17.45;;;9.88;;
37237;SDS011;23129;49.662;8.448;2022-12-18T09:02:46;16.00;;;9.98;;
37237;SDS011;23129;49.662;8.448;2022-12-18T09:05:15;27.70;;;12.40;;
37237;SDS011;23129;49.662;8.448;2022-12-18T09:07:44;23.95;;;11.40;;
37237;SDS011;23129;49.662;8.448;2022-12-18T09:10:13;39.85;;;16.52;;
37237;SDS011;23129;49.662;8.448;2022-12-18T09:12:43;30.15;;;13.30;;
37237;SDS011;23129;49.662;8.448;2022-12-18T09:15:11;15.98;;;9.60;;
37237;SDS011;23129;49.662;8.448;2022-12-18T09:17:40;21.55;;;10.52;;
37237;SDS011;23129;49.662;8.448;2022-12-18T09:20:09;21.67;;;9.80;;
37237;SDS011;23129;49.662;8.448;2022-12-18T09:22:38;30.88;;;12.48;;
37237;SDS011;23129;49.662;8.448;2022-12-18T09:25:07;35.97;;;13.93;;
37237;SDS011;23129;49.662;8.448;2022-12-18T09:27:35;23.58;;;10.18;;
37237;SDS011;23129;49.662;8.448;2022-12-18T09:30:06;29.98;;;12.50;;
37237;SDS011;23129;49.662;8.448;2022-12-18T09:32:36;40.15;;;15.02;;
37237;SDS011;23129;49.662;8.448;2022-12-18T09:35:05;33.30;;;12.52;;
37237;SDS011;23129;49.662;8.448;2022-12-18T09:37:33;23.17;;;11.02;;
37237;SDS011;23129;49.662;8.448;2022-12-18T09:40:02;27.23;;;12.27;;
37237;SDS011;23129;49.662;8.448;2022-12-18T09:42:31;29.17;;;13.32;;
37237;SDS011;23129;49.662;8.448;2022-12-18T09:45:00;21.95;;;11.32;;
37237;SDS011;23129;49.662;8.448;2022-12-18T09:47:33;26.15;;;13.15;;
37237;SDS011;23129;49.662;8.448;2022-12-18T09:50:22;36.95;;;14.82;;
37237;SDS011;23129;49.662;8.448;2022-12-18T09:52:55;32.78;;;14.52;;
37237;SDS011;23129;49.662;8.448;2022-12-18T09:55:30;27.75;;;12.63;;
37237;SDS011;23129;49.662;8.448;2022-12-18T09:58:05;37.72;;;15.10;;
37237;SDS011;23129;49.662;8.448;2022-12-18T10:00:41;39.38;;;14.35;;
37237;SDS011;23129;49.662;8.448;2022-12-18T10:03:13;39.47;;;15.55;;
37237;SDS011;23129;49.662;8.448;2022-12-18T10:05:44;41.67;;;16.48;;
37237;SDS011;23129;49.662;8.448;2022-12-18T10:08:24;43.05;;;17.20;;
37237;SDS011;23129;49.662;8.448;2022-12-18T10:11:03;35.03;;;14.32;;
37237;SDS011;23129;49.662;8.448;2022-12-18T10:13:57;27.58;;;14.15;;
37237;SDS011;23129;49.662;8.448;2022-12-18T10:16:34;38.25;;;15.68;;
37237;SDS011;23129;49.662;8.448;2022-12-18T10:19:20;41.90;;;16.90;;
37237;SDS011;23129;49.662;8.448;2022-12-18T10:22:11;38.53;;;14.45;;
37237;SDS011;23129;49.662;8.448;2022-12-18T10:24:52;25.60;;;13.73;;
37237;SDS011;23129;49.662;8.448;2022-12-18T10:27:27;45.88;;;17.27;;
37237;SDS011;23129;49.662;8.448;2022-12-18T10:29:57;41.10;;;16.60;;
37237;SDS011;23129;49.662;8.448;2022-12-18T10:32:28;44.55;;;18.35;;
37237;SDS011;23129;49.662;8.448;2022-12-18T10:34:59;42.70;;;16.77;;
37237;SDS011;23129;49.662;8.448;2022-12-18T10:37:28;35.80;;;13.63;;
37237;SDS011;23129;49.662;8.448;2022-12-18T10:40:07;46.50;;;20.02;;
37237;SDS011;23129;49.662;8.448;2022-12-18T10:42:47;42.00;;;14.52;;
37237;SDS011;23129;49.662;8.448;2022-12-18T10:45:38;25.38;;;10.40;;
37237;SDS011;23129;49.662;8.448;2022-12-18T10:48:17;42.53;;;17.08;;
37237;SDS011;23129;49.662;8.448;2022-12-18T10:50:49;34.80;;;17.15;;
37237;SDS011;23129;49.662;8.448;2022-12-18T10:53:39;38.35;;;16.25;;
37237;SDS011;23129;49.662;8.448;2022-12-18T10:56:09;39.00;;;15.57;;
37237;SDS011;23129;49.662;8.448;2022-12-18T10:58:39;33.55;;;14.18;;
37237;SDS011;23129;49.662;8.448;2022-12-18T11:01:09;50.63;;;16.42;;
37237;SDS011;23129;49.662;8.448;2022-12-18T11:03:40;50.40;;;16.35;;
37237;SDS011;23129;49.662;8.448;2022-12-18T11:06:13;35.03;;;14.35;;
37237;SDS011;23129;49.662;8.448;2022-12-18T11:08:44;44.20;;;16.33;;
37237;SDS011;23129;49.662;8.448;2022-12-18T11:11:26;48.35;;;16.40;;
37237;SDS011;23129;49.662;8.448;2022-12-18T11:14:00;46.70;;;18.35;;
37237;SDS011;23129;49.662;8.448;2022-12-18T11:16:33;44.50;;;14.77;;
37237;SDS011;23129;49.662;8.448;2022-12-18T11:19:31;36.55;;;16.90;;
37237;SDS011;23129;49.662;8.448;2022-12-18T11:22:03;37.85;;;15.52;;
37237;SDS011;23129;49.662;8.448;2022-12-18T11:24:52;37.33;;;15.27;;
37237;SDS011;23129;49.662;8.448;2022-12-18T11:27:47;59.80;;;21.50;;
37237;SDS011;23129;49.662;8.448;2022-12-18T11:30:22;53.50;;;21.20;;
37237;SDS011;23129;49.662;8.448;2022-12-18T11:32:54;50.25;;;20.90;;
37237;SDS011;23129;49.662;8.448;2022-12-18T11:35:33;52.40;;;20.63;;
37237;SDS011;23129;49.662;8.448;2022-12-18T11:38:12;52.83;;;19.90;;
37237;SDS011;23129;49.662;8.448;2022-12-18T11:40:50;48.53;;;19.25;;
37237;SDS011;23129;49.662;8.448;2022-12-18T11:43:26;54.42;;;18.65;;
37237;SDS011;23129;49.662;8.448;2022-12-18T11:46:00;43.13;;;18.48;;
37237;SDS011;23129;49.662;8.448;2022-12-18T11:48:34;44.78;;;21.42;;
37237;SDS011;23129;49.662;8.448;2022-12-18T11:51:11;51.28;;;22.42;;
37237;SDS011;23129;49.662;8.448;2022-12-18T11:53:53;41.63;;;19.10;;
37237;SDS011;23129;49.662;8.448;2022-12-18T11:56:27;56.42;;;21.65;;
37237;SDS011;23129;49.662;8.448;2022-12-18T11:59:03;36.97;;;17.02;;
37237;SDS011;23129;49.662;8.448;2022-12-18T12:01:45;38.47;;;16.20;;
37237;SDS011;23129;49.662;8.448;2022-12-18T12:04:38;39.25;;;17.63;;
37237;SDS011;23129;49.662;8.448;2022-12-18T12:07:34;41.83;;;16.10;;
37237;SDS011;23129;49.662;8.448;2022-12-18T12:10:16;30.95;;;14.77;;
37237;SDS011;23129;49.662;8.448;2022-12-18T12:13:02;38.63;;;14.63;;
37237;SDS011;23129;49.662;8.448;2022-12-18T12:15:46;49.40;;;16.33;;
37237;SDS011;23129;49.662;8.448;2022-12-18T12:18:31;39.80;;;16.30;;
37237;SDS011;23129;49.662;8.448;2022-12-18T12:21:12;43.20;;;18.88;;
37237;SDS011;23129;49.662;8.448;2022-12-18T12:23:51;34.85;;;16.80;;
37237;SDS011;23129;49.662;8.448;2022-12-18T12:26:29;41.03;;;18.17;;
37237;SDS011;23129;49.662;8.448;2022-12-18T12:29:10;36.90;;;17.58;;
37237;SDS011;23129;49.662;8.448;2022-12-18T12:32:00;37.83;;;15.70;;
37237;SDS011;23129;49.662;8.448;2022-12-18T12:34:53;42.92;;;16.90;;
37237;SDS011;23129;49.662;8.448;2022-12-18T12:37:38;40.97;;;18.30;;
37237;SDS011;23129;49.662;8.448;2022-12-18T12:40:17;49.15;;;19.30;;
37237;SDS011;23129;49.662;8.448;2022-12-18T12:43:12;44.67;;;18.58;;
37237;SDS011;23129;49.662;8.448;2022-12-18T12:45:53;37.80;;;17.17;;
37237;SDS011;23129;49.662;8.448;2022-12-18T12:48:34;43.03;;;16.55;;
37237;SDS011;23129;49.662;8.448;2022-12-18T12:51:12;46.33;;;17.90;;
37237;SDS011;23129;49.662;8.448;2022-12-18T12:53:45;39.17;;;15.05;;
37237;SDS011;23129;49.662;8.448;2022-12-18T12:56:15;47.03;;;18.30;;
37237;SDS011;23129;49.662;8.448;2022-12-18T12:58:51;41.00;;;18.55;;
37237;SDS011;23129;49.662;8.448;2022-12-18T13:01:28;42.42;;;17.95;;
37237;SDS011;23129;49.662;8.448;2022-12-18T13:04:08;38.20;;;17.85;;
37237;SDS011;23129;49.662;8.448;2022-12-18T13:06:48;39.33;;;17.02;;
37237;SDS011;23129;49.662;8.448;2022-12-18T13:09:23;54.53;;;19.67;;
37237;SDS011;23129;49.662;8.448;2022-12-18T13:11:52;39.08;;;16.98;;
37237;SDS011;23129;49.662;8.448;2022-12-18T13:14:47;35.72;;;15.85;;
37237;SDS011;23129;49.662;8.448;2022-12-18T13:20:03;42.00;;;18.27;;
37237;SDS011;23129;49.662;8.448;2022-12-18T13:22:42;34.40;;;16.15;;
37237;SDS011;23129;49.662;8.448;2022-12-18T13:25:31;34.13;;;13.68;;
37237;SDS011;23129;49.662;8.448;2022-12-18T13:28:04;32.72;;;16.33;;
37237;SDS011;23129;49.662;8.448;2022-12-18T13:30:43;40.08;;;17.35;;
37237;SDS011;23129;49.662;8.448;2022-12-18T13:36:37;34.78;;;15.85;;
37237;SDS011;23129;49.662;8.448;2022-12-18T13:39:10;29.60;;;14.90;;
37237;SDS011;23129;49.662;8.448;2022-12-18T13:45:35;39.28;;;16.35;;
37237;SDS011;23129;49.662;8.448;2022-12-18T13:48:17;30.27;;;15.43;;
37237;SDS011;23129;49.662;8.448;2022-12-18T13:50:53;37.63;;;15.95;;
37237;SDS011;23129;49.662;8.448;2022-12-18T13:53:30;31.23;;;14.60;;
37237;SDS011;23129;49.662;8.448;2022-12-18T13:56:05;45.25;;;16.02;;
37237;SDS011;23129;49.662;8.448;2022-12-18T13:58:34;38.22;;;15.70;;
37237;SDS011;23129;49.662;8.448;2022-12-18T14:01:05;38.72;;;17.50;;
37237;SDS011;23129;49.662;8.448;2022-12-18T14:06:45;32.67;;;14.60;;
37237;SDS011;23129;49.662;8.448;2022-12-18T14:09:14;46.42;;;20.40;;
37237;SDS011;23129;49.662;8.448;2022-12-18T14:11:47;44.55;;;19.48;;
37237;SDS011;23129;49.662;8.448;2022-12-18T14:14:17;39.85;;;15.68;;
37237;SDS011;23129;49.662;8.448;2022-12-18T14:16:48;42.00;;;18.55;;
37237;SDS011;23129;49.662;8.448;2022-12-18T14:19:18;38.95;;;17.05;;
37237;SDS011;23129;49.662;8.448;2022-12-18T14:21:48;32.78;;;16.52;;
37237;SDS011;23129;49.662;8.448;2022-12-18T14:24:18;47.80;;;16.90;;
37237;SDS011;23129;49.662;8.448;2022-12-18T14:26:49;29.08;;;15.50;;
37237;SDS011;23129;49.662;8.448;2022-12-18T14:29:19;38.22;;;15.15;;
37237;SDS011;23129;49.662;8.448;2022-12-18T14:34:43;33.60;;;16.05;;
37237;SDS011;23129;49.662;8.448;2022-12-18T14:37:13;30.23;;;15.02;;
37237;SDS011;23129;49.662;8.448;2022-12-18T14:39:53;23.80;;;13.27;;
37237;SDS011;23129;49.662;8.448;2022-12-18T14:42:24;30.02;;;13.90;;
37237;SDS011;23129;49.662;8.448;2022-12-18T14:48:13;29.42;;;13.38;;
37237;SDS011;23129;49.662;8.448;2022-12-18T14:50:56;33.42;;;17.45;;
37237;SDS011;23129;49.662;8.448;2022-12-18T14:53:37;40.55;;;15.95;;
37237;SDS011;23129;49.662;8.448;2022-12-18T14:56:15;27.83;;;14.45;;
37237;SDS011;23129;49.662;8.448;2022-12-18T14:58:47;27.83;;;13.90;;
37237;SDS011;23129;49.662;8.448;2022-12-18T15:01:21;39.83;;;14.40;;
37237;SDS011;23129;49.662;8.448;2022-12-18T15:03:55;34.97;;;15.63;;
37237;SDS011;23129;49.662;8.448;2022-12-18T15:06:27;32.25;;;15.40;;
37237;SDS011;23129;49.662;8.448;2022-12-18T15:09:02;31.08;;;12.13;;
37237;SDS011;23129;49.662;8.448;2022-12-18T15:11:47;28.33;;;12.85;;
37237;SDS011;23129;49.662;8.448;2022-12-18T15:14:23;32.50;;;13.52;;
37237;SDS011;23129;49.662;8.448;2022-12-18T15:17:03;25.73;;;11.27;;
37237;SDS011;23129;49.662;8.448;2022-12-18T15:19:39;29.33;;;14.60;;
37237;SDS011;23129;49.662;8.448;2022-12-18T15:22:15;31.00;;;15.20;;
37237;SDS011;23129;49.662;8.448;2022-12-18T15:24:48;37.53;;;15.32;;
37237;SDS011;23129;49.662;8.448;2022-12-18T15:27:21;20.58;;;12.70;;
37237;SDS011;23129;49.662;8.448;2022-12-18T15:29:59;23.42;;;10.50;;
37237;SDS011;23129;49.662;8.448;2022-12-18T15:32:47;22.40;;;11.40;;
37237;SDS011;23129;49.662;8.448;2022-12-18T15:35:20;27.48;;;13.57;;